Evansville, Indiana
Current Conditions -  °F | °C
As of 8:54 PM on Saturday 25 Oct 2014 (Local Time) from KEVV Reporting Station
Clear Clear  
Wind Chill: 14°   Ceiling: Unl
Heat Index: 14°   Visibility: 10mi
Dew Point: 12°   Wind: 6mph
Humidity: 87%   Direction: 240°WSW
Pressure: 30"   Gusts: NA
Location:  37.98°N, 87.56°W
Report Text: KEVV 260154Z 24005KT 10SM CLR 14/12 A3000 RMK AO2 SLP157 T01440122
Loading
Personal Weather Stations






























Interactive Weather Map
Tropical Storm Tracking
New forecast layout! Learn more

10-Day Weather Forecast

Advertisements
Track Severe Weather on mobile